sensor_id;sensor_type;location;lat;lon;timestamp;P1;durP1;ratioP1;P2;durP2;ratioP2
9188;SDS011;34313;50.780;6.084;2023-05-07T00:01:59;6.10;;;4.00;;
9188;SDS011;34313;50.780;6.084;2023-05-07T00:04:24;8.40;;;5.63;;
9188;SDS011;34313;50.780;6.084;2023-05-07T00:06:49;5.03;;;4.20;;
9188;SDS011;34313;50.780;6.084;2023-05-07T00:09:16;5.37;;;3.57;;
9188;SDS011;34313;50.780;6.084;2023-05-07T00:11:41;4.63;;;3.27;;
9188;SDS011;34313;50.780;6.084;2023-05-07T00:14:07;5.37;;;3.40;;
9188;SDS011;34313;50.780;6.084;2023-05-07T00:16:32;7.33;;;3.17;;
9188;SDS011;34313;50.780;6.084;2023-05-07T00:18:57;7.03;;;3.43;;
9188;SDS011;34313;50.780;6.084;2023-05-07T00:21:23;5.77;;;3.47;;
9188;SDS011;34313;50.780;6.084;2023-05-07T00:23:51;4.90;;;3.40;;
9188;SDS011;34313;50.780;6.084;2023-05-07T00:26:16;4.00;;;3.37;;
9188;SDS011;34313;50.780;6.084;2023-05-07T00:28:42;7.90;;;3.07;;
9188;SDS011;34313;50.780;6.084;2023-05-07T00:31:07;3.40;;;2.80;;
9188;SDS011;34313;50.780;6.084;2023-05-07T00:33:32;7.70;;;3.43;;
9188;SDS011;34313;50.780;6.084;2023-05-07T00:35:57;5.13;;;3.20;;
9188;SDS011;34313;50.780;6.084;2023-05-07T00:38:23;3.40;;;2.60;;
9188;SDS011;34313;50.780;6.084;2023-05-07T00:40:48;4.70;;;2.60;;
9188;SDS011;34313;50.780;6.084;2023-05-07T00:43:14;4.13;;;2.63;;
9188;SDS011;34313;50.780;6.084;2023-05-07T00:45:39;2.53;;;2.33;;
9188;SDS011;34313;50.780;6.084;2023-05-07T00:48:05;7.53;;;3.10;;
9188;SDS011;34313;50.780;6.084;2023-05-07T00:50:30;4.90;;;3.20;;
9188;SDS011;34313;50.780;6.084;2023-05-07T00:52:57;4.97;;;2.87;;
9188;SDS011;34313;50.780;6.084;2023-05-07T00:55:23;3.47;;;2.83;;
9188;SDS011;34313;50.780;6.084;2023-05-07T00:57:49;4.93;;;2.50;;
9188;SDS011;34313;50.780;6.084;2023-05-07T01:00:15;3.17;;;2.90;;
9188;SDS011;34313;50.780;6.084;2023-05-07T01:02:42;4.43;;;3.00;;
9188;SDS011;34313;50.780;6.084;2023-05-07T01:05:09;4.60;;;2.90;;
9188;SDS011;34313;50.780;6.084;2023-05-07T01:07:37;3.70;;;2.70;;
9188;SDS011;34313;50.780;6.084;2023-05-07T01:10:05;3.13;;;2.60;;
9188;SDS011;34313;50.780;6.084;2023-05-07T01:12:32;7.33;;;2.50;;
9188;SDS011;34313;50.780;6.084;2023-05-07T01:14:58;4.10;;;2.70;;
9188;SDS011;34313;50.780;6.084;2023-05-07T01:17:23;2.63;;;2.40;;
9188;SDS011;34313;50.780;6.084;2023-05-07T01:19:49;3.47;;;2.30;;
9188;SDS011;34313;50.780;6.084;2023-05-07T01:22:15;2.37;;;2.17;;
9188;SDS011;34313;50.780;6.084;2023-05-07T01:24:45;2.50;;;2.30;;
9188;SDS011;34313;50.780;6.084;2023-05-07T01:27:11;3.70;;;2.63;;
9188;SDS011;34313;50.780;6.084;2023-05-07T01:29:36;3.43;;;2.43;;
9188;SDS011;34313;50.780;6.084;2023-05-07T01:32:01;2.57;;;2.33;;
9188;SDS011;34313;50.780;6.084;2023-05-07T01:34:28;2.73;;;2.40;;
9188;SDS011;34313;50.780;6.084;2023-05-07T01:36:56;3.53;;;2.60;;
9188;SDS011;34313;50.780;6.084;2023-05-07T01:39:27;3.40;;;3.03;;
9188;SDS011;34313;50.780;6.084;2023-05-07T01:41:54;4.03;;;2.73;;
9188;SDS011;34313;50.780;6.084;2023-05-07T01:44:21;4.00;;;2.50;;
9188;SDS011;34313;50.780;6.084;2023-05-07T01:46:47;3.77;;;2.60;;
9188;SDS011;34313;50.780;6.084;2023-05-07T01:49:13;4.43;;;3.40;;
9188;SDS011;34313;50.780;6.084;2023-05-07T01:51:39;6.27;;;3.40;;
9188;SDS011;34313;50.780;6.084;2023-05-07T01:54:05;3.73;;;3.00;;
9188;SDS011;34313;50.780;6.084;2023-05-07T01:56:31;3.57;;;3.07;;
9188;SDS011;34313;50.780;6.084;2023-05-07T01:58:56;3.20;;;2.67;;
9188;SDS011;34313;50.780;6.084;2023-05-07T02:01:22;3.50;;;2.77;;
9188;SDS011;34313;50.780;6.084;2023-05-07T02:03:47;4.20;;;3.10;;
9188;SDS011;34313;50.780;6.084;2023-05-07T02:06:13;4.87;;;3.27;;
9188;SDS011;34313;50.780;6.084;2023-05-07T02:08:38;3.40;;;3.10;;
9188;SDS011;34313;50.780;6.084;2023-05-07T02:11:04;3.33;;;2.90;;
9188;SDS011;34313;50.780;6.084;2023-05-07T02:13:29;5.47;;;3.13;;
9188;SDS011;34313;50.780;6.084;2023-05-07T02:15:57;3.37;;;2.90;;
9188;SDS011;34313;50.780;6.084;2023-05-07T02:18:22;3.20;;;2.90;;
9188;SDS011;34313;50.780;6.084;2023-05-07T02:20:48;2.83;;;2.60;;
9188;SDS011;34313;50.780;6.084;2023-05-07T02:23:13;6.30;;;2.50;;
9188;SDS011;34313;50.780;6.084;2023-05-07T02:25:38;6.60;;;2.40;;
9188;SDS011;34313;50.780;6.084;2023-05-07T02:28:03;5.47;;;3.20;;
9188;SDS011;34313;50.780;6.084;2023-05-07T02:30:29;3.40;;;3.00;;
9188;SDS011;34313;50.780;6.084;2023-05-07T02:32:54;3.70;;;2.73;;
9188;SDS011;34313;50.780;6.084;2023-05-07T02:35:20;3.40;;;2.90;;
9188;SDS011;34313;50.780;6.084;2023-05-07T02:37:45;3.30;;;2.67;;
9188;SDS011;34313;50.780;6.084;2023-05-07T02:40:10;7.50;;;2.80;;
9188;SDS011;34313;50.780;6.084;2023-05-07T02:42:36;6.00;;;3.13;;
9188;SDS011;34313;50.780;6.084;2023-05-07T02:45:01;4.03;;;3.10;;
9188;SDS011;34313;50.780;6.084;2023-05-07T02:47:27;5.90;;;2.77;;
9188;SDS011;34313;50.780;6.084;2023-05-07T02:49:53;6.13;;;3.30;;
9188;SDS011;34313;50.780;6.084;2023-05-07T02:52:20;5.07;;;3.20;;
9188;SDS011;34313;50.780;6.084;2023-05-07T02:54:45;4.00;;;2.60;;
9188;SDS011;34313;50.780;6.084;2023-05-07T02:57:10;4.17;;;3.13;;
9188;SDS011;34313;50.780;6.084;2023-05-07T02:59:36;4.33;;;3.20;;
9188;SDS011;34313;50.780;6.084;2023-05-07T03:02:01;3.27;;;2.97;;
9188;SDS011;34313;50.780;6.084;2023-05-07T03:04:26;4.40;;;3.20;;
9188;SDS011;34313;50.780;6.084;2023-05-07T03:06:52;5.37;;;2.40;;
9188;SDS011;34313;50.780;6.084;2023-05-07T03:09:17;3.40;;;3.10;;
9188;SDS011;34313;50.780;6.084;2023-05-07T03:11:42;3.83;;;2.90;;
9188;SDS011;34313;50.780;6.084;2023-05-07T03:14:08;3.37;;;2.80;;
9188;SDS011;34313;50.780;6.084;2023-05-07T03:16:33;4.17;;;2.80;;
9188;SDS011;34313;50.780;6.084;2023-05-07T03:18:58;3.63;;;2.80;;
9188;SDS011;34313;50.780;6.084;2023-05-07T03:21:23;4.83;;;2.80;;
9188;SDS011;34313;50.780;6.084;2023-05-07T03:23:49;3.33;;;2.70;;
9188;SDS011;34313;50.780;6.084;2023-05-07T03:26:14;3.23;;;2.70;;
9188;SDS011;34313;50.780;6.084;2023-05-07T03:28:40;3.90;;;3.10;;
9188;SDS011;34313;50.780;6.084;2023-05-07T03:31:05;3.23;;;2.70;;
9188;SDS011;34313;50.780;6.084;2023-05-07T03:33:32;2.90;;;2.70;;
9188;SDS011;34313;50.780;6.084;2023-05-07T03:35:58;3.83;;;2.67;;
9188;SDS011;34313;50.780;6.084;2023-05-07T03:38:24;3.43;;;2.93;;
9188;SDS011;34313;50.780;6.084;2023-05-07T03:40:49;3.40;;;2.17;;
9188;SDS011;34313;50.780;6.084;2023-05-07T03:43:14;3.27;;;2.67;;
9188;SDS011;34313;50.780;6.084;2023-05-07T03:45:40;2.90;;;2.57;;
9188;SDS011;34313;50.780;6.084;2023-05-07T03:48:05;3.73;;;2.87;;
9188;SDS011;34313;50.780;6.084;2023-05-07T03:50:30;6.90;;;2.40;;
9188;SDS011;34313;50.780;6.084;2023-05-07T03:52:56;3.80;;;2.83;;
9188;SDS011;34313;50.780;6.084;2023-05-07T03:55:21;3.40;;;2.87;;
9188;SDS011;34313;50.780;6.084;2023-05-07T03:57:46;2.60;;;2.40;;
9188;SDS011;34313;50.780;6.084;2023-05-07T04:00:12;4.40;;;2.40;;
9188;SDS011;34313;50.780;6.084;2023-05-07T04:02:37;4.07;;;3.00;;
9188;SDS011;34313;50.780;6.084;2023-05-07T04:05:03;3.73;;;3.10;;
9188;SDS011;34313;50.780;6.084;2023-05-07T04:07:28;4.53;;;2.83;;
9188;SDS011;34313;50.780;6.084;2023-05-07T04:09:54;3.50;;;3.03;;
9188;SDS011;34313;50.780;6.084;2023-05-07T04:12:19;8.33;;;3.10;;
9188;SDS011;34313;50.780;6.084;2023-05-07T04:14:44;3.80;;;2.80;;
9188;SDS011;34313;50.780;6.084;2023-05-07T04:17:09;4.20;;;3.10;;
9188;SDS011;34313;50.780;6.084;2023-05-07T04:19:35;2.90;;;2.70;;
9188;SDS011;34313;50.780;6.084;2023-05-07T04:22:01;2.90;;;2.47;;
9188;SDS011;34313;50.780;6.084;2023-05-07T04:24:26;3.73;;;3.20;;
9188;SDS011;34313;50.780;6.084;2023-05-07T04:26:51;4.03;;;3.10;;
9188;SDS011;34313;50.780;6.084;2023-05-07T04:29:17;3.60;;;2.70;;
9188;SDS011;34313;50.780;6.084;2023-05-07T04:31:43;2.97;;;2.70;;
9188;SDS011;34313;50.780;6.084;2023-05-07T04:34:09;5.53;;;2.43;;
9188;SDS011;34313;50.780;6.084;2023-05-07T04:36:36;3.03;;;2.60;;
9188;SDS011;34313;50.780;6.084;2023-05-07T04:39:03;3.10;;;2.50;;
9188;SDS011;34313;50.780;6.084;2023-05-07T04:41:28;5.67;;;2.50;;
9188;SDS011;34313;50.780;6.084;2023-05-07T04:43:53;4.50;;;2.77;;
9188;SDS011;34313;50.780;6.084;2023-05-07T04:46:19;9.13;;;2.97;;
9188;SDS011;34313;50.780;6.084;2023-05-07T04:48:44;4.57;;;3.47;;
9188;SDS011;34313;50.780;6.084;2023-05-07T04:51:10;3.13;;;2.83;;
9188;SDS011;34313;50.780;6.084;2023-05-07T04:53:35;3.10;;;2.80;;
9188;SDS011;34313;50.780;6.084;2023-05-07T04:56:01;5.27;;;3.00;;
9188;SDS011;34313;50.780;6.084;2023-05-07T04:58:27;3.23;;;2.80;;
9188;SDS011;34313;50.780;6.084;2023-05-07T05:00:56;3.70;;;2.97;;
9188;SDS011;34313;50.780;6.084;2023-05-07T05:03:21;2.90;;;2.60;;
9188;SDS011;34313;50.780;6.084;2023-05-07T05:05:48;4.53;;;3.27;;
9188;SDS011;34313;50.780;6.084;2023-05-07T05:08:14;4.07;;;3.00;;
9188;SDS011;34313;50.780;6.084;2023-05-07T05:10:39;3.53;;;3.20;;
9188;SDS011;34313;50.780;6.084;2023-05-07T05:13:06;4.77;;;3.10;;
9188;SDS011;34313;50.780;6.084;2023-05-07T05:15:31;2.77;;;2.57;;
9188;SDS011;34313;50.780;6.084;2023-05-07T05:17:56;3.27;;;2.77;;
9188;SDS011;34313;50.780;6.084;2023-05-07T05:20:22;4.00;;;2.87;;
9188;SDS011;34313;50.780;6.084;2023-05-07T05:22:47;3.63;;;3.20;;
9188;SDS011;34313;50.780;6.084;2023-05-07T05:25:12;3.23;;;2.83;;
9188;SDS011;34313;50.780;6.084;2023-05-07T05:27:37;4.20;;;2.83;;
9188;SDS011;34313;50.780;6.084;2023-05-07T05:30:03;3.20;;;2.57;;
9188;SDS011;34313;50.780;6.084;2023-05-07T05:32:29;4.33;;;2.67;;
9188;SDS011;34313;50.780;6.084;2023-05-07T05:34:54;2.50;;;2.30;;
9188;SDS011;34313;50.780;6.084;2023-05-07T05:37:20;5.30;;;2.40;;
9188;SDS011;34313;50.780;6.084;2023-05-07T05:39:45;3.00;;;2.30;;
9188;SDS011;34313;50.780;6.084;2023-05-07T05:42:11;2.73;;;2.53;;
9188;SDS011;34313;50.780;6.084;2023-05-07T05:44:36;4.40;;;2.30;;
9188;SDS011;34313;50.780;6.084;2023-05-07T05:47:02;3.00;;;2.60;;
9188;SDS011;34313;50.780;6.084;2023-05-07T05:49:28;3.03;;;2.40;;
9188;SDS011;34313;50.780;6.084;2023-05-07T05:51:53;5.83;;;2.90;;
9188;SDS011;34313;50.780;6.084;2023-05-07T05:54:18;3.00;;;2.70;;
9188;SDS011;34313;50.780;6.084;2023-05-07T05:56:43;2.40;;;2.20;;
9188;SDS011;34313;50.780;6.084;2023-05-07T05:59:09;3.50;;;2.60;;
9188;SDS011;34313;50.780;6.084;2023-05-07T06:01:35;2.67;;;2.47;;
9188;SDS011;34313;50.780;6.084;2023-05-07T06:04:00;3.00;;;2.30;;
9188;SDS011;34313;50.780;6.084;2023-05-07T06:06:26;3.57;;;2.37;;
9188;SDS011;34313;50.780;6.084;2023-05-07T06:08:52;3.47;;;2.23;;
9188;SDS011;34313;50.780;6.084;2023-05-07T06:11:17;2.47;;;2.27;;
9188;SDS011;34313;50.780;6.084;2023-05-07T06:13:42;2.70;;;2.20;;
9188;SDS011;34313;50.780;6.084;2023-05-07T06:16:08;2.50;;;2.07;;
9188;SDS011;34313;50.780;6.084;2023-05-07T06:18:33;2.20;;;2.00;;
9188;SDS011;34313;50.780;6.084;2023-05-07T06:21:01;2.63;;;2.30;;
9188;SDS011;34313;50.780;6.084;2023-05-07T06:23:26;4.07;;;2.13;;
9188;SDS011;34313;50.780;6.084;2023-05-07T06:25:51;2.70;;;1.77;;
9188;SDS011;34313;50.780;6.084;2023-05-07T06:28:17;2.90;;;2.17;;
9188;SDS011;34313;50.780;6.084;2023-05-07T06:30:42;2.70;;;2.50;;
9188;SDS011;34313;50.780;6.084;2023-05-07T06:33:07;3.63;;;2.27;;
9188;SDS011;34313;50.780;6.084;2023-05-07T06:35:33;3.03;;;1.90;;
9188;SDS011;34313;50.780;6.084;2023-05-07T06:37:59;3.60;;;2.20;;
9188;SDS011;34313;50.780;6.084;2023-05-07T06:40:25;4.20;;;2.17;;
9188;SDS011;34313;50.780;6.084;2023-05-07T06:42:50;2.80;;;2.10;;
9188;SDS011;34313;50.780;6.084;2023-05-07T06:45:16;3.60;;;1.73;;
9188;SDS011;34313;50.780;6.084;2023-05-07T06:47:41;2.27;;;2.07;;
9188;SDS011;34313;50.780;6.084;2023-05-07T06:50:07;2.30;;;1.77;;
9188;SDS011;34313;50.780;6.084;2023-05-07T06:52:32;5.60;;;1.70;;
9188;SDS011;34313;50.780;6.084;2023-05-07T06:54:57;3.23;;;1.93;;
9188;SDS011;34313;50.780;6.084;2023-05-07T06:57:23;5.17;;;1.93;;
9188;SDS011;34313;50.780;6.084;2023-05-07T06:59:49;2.57;;;2.10;;
9188;SDS011;34313;50.780;6.084;2023-05-07T07:02:14;2.10;;;1.90;;
9188;SDS011;34313;50.780;6.084;2023-05-07T07:04:39;2.33;;;1.70;;
9188;SDS011;34313;50.780;6.084;2023-05-07T07:07:06;3.27;;;1.67;;
9188;SDS011;34313;50.780;6.084;2023-05-07T07:09:31;2.63;;;1.90;;
9188;SDS011;34313;50.780;6.084;2023-05-07T07:11:56;2.40;;;2.00;;
9188;SDS011;34313;50.780;6.084;2023-05-07T07:14:21;2.10;;;1.90;;
9188;SDS011;34313;50.780;6.084;2023-05-07T07:16:47;1.63;;;1.53;;
9188;SDS011;34313;50.780;6.084;2023-05-07T07:19:12;3.10;;;1.70;;
9188;SDS011;34313;50.780;6.084;2023-05-07T07:21:37;1.80;;;1.70;;
9188;SDS011;34313;50.780;6.084;2023-05-07T07:24:03;2.17;;;1.80;;
9188;SDS011;34313;50.780;6.084;2023-05-07T07:26:28;2.30;;;1.47;;
9188;SDS011;34313;50.780;6.084;2023-05-07T07:28:53;2.73;;;1.60;;
9188;SDS011;34313;50.780;6.084;2023-05-07T07:31:19;2.53;;;1.43;;
9188;SDS011;34313;50.780;6.084;2023-05-07T07:33:44;2.97;;;1.80;;
9188;SDS011;34313;50.780;6.084;2023-05-07T07:36:10;2.00;;;1.57;;
9188;SDS011;34313;50.780;6.084;2023-05-07T07:38:35;2.50;;;1.30;;
9188;SDS011;34313;50.780;6.084;2023-05-07T07:41:01;2.20;;;1.63;;
9188;SDS011;34313;50.780;6.084;2023-05-07T07:43:27;3.60;;;1.23;;
9188;SDS011;34313;50.780;6.084;2023-05-07T07:45:52;2.50;;;1.70;;
9188;SDS011;34313;50.780;6.084;2023-05-07T07:48:18;2.23;;;1.20;;
9188;SDS011;34313;50.780;6.084;2023-05-07T07:50:43;1.63;;;1.37;;
9188;SDS011;34313;50.780;6.084;2023-05-07T07:53:08;2.33;;;1.37;;
9188;SDS011;34313;50.780;6.084;2023-05-07T07:55:38;2.30;;;1.60;;
9188;SDS011;34313;50.780;6.084;2023-05-07T07:58:04;2.20;;;1.70;;
9188;SDS011;34313;50.780;6.084;2023-05-07T08:00:30;1.47;;;1.30;;
9188;SDS011;34313;50.780;6.084;2023-05-07T08:02:55;2.30;;;2.00;;
9188;SDS011;34313;50.780;6.084;2023-05-07T08:05:20;6.70;;;1.83;;
9188;SDS011;34313;50.780;6.084;2023-05-07T08:07:46;2.87;;;2.30;;
9188;SDS011;34313;50.780;6.084;2023-05-07T08:10:16;2.47;;;2.27;;
9188;SDS011;34313;50.780;6.084;2023-05-07T08:12:46;3.30;;;1.90;;
9188;SDS011;34313;50.780;6.084;2023-05-07T08:15:12;3.43;;;1.80;;
9188;SDS011;34313;50.780;6.084;2023-05-07T08:17:38;2.07;;;1.80;;
9188;SDS011;34313;50.780;6.084;2023-05-07T08:20:03;1.70;;;1.60;;
9188;SDS011;34313;50.780;6.084;2023-05-07T08:22:29;2.93;;;1.20;;
9188;SDS011;34313;50.780;6.084;2023-05-07T08:24:55;1.70;;;1.47;;
9188;SDS011;34313;50.780;6.084;2023-05-07T08:27:20;2.77;;;1.40;;
9188;SDS011;34313;50.780;6.084;2023-05-07T08:29:45;3.30;;;1.37;;
9188;SDS011;34313;50.780;6.084;2023-05-07T08:32:12;1.20;;;1.10;;
9188;SDS011;34313;50.780;6.084;2023-05-07T08:34:37;2.33;;;1.40;;
9188;SDS011;34313;50.780;6.084;2023-05-07T08:37:04;1.90;;;1.30;;
9188;SDS011;34313;50.780;6.084;2023-05-07T08:39:29;1.80;;;1.43;;
9188;SDS011;34313;50.780;6.084;2023-05-07T08:41:55;2.15;;;1.40;;
9188;SDS011;34313;50.780;6.084;2023-05-07T08:44:22;3.10;;;1.55;;
9188;SDS011;34313;50.780;6.084;2023-05-07T08:46:48;4.88;;;1.80;;
9188;SDS011;34313;50.780;6.084;2023-05-07T08:49:18;2.30;;;1.33;;
9188;SDS011;34313;50.780;6.084;2023-05-07T08:51:44;3.22;;;2.20;;
9188;SDS011;34313;50.780;6.084;2023-05-07T08:54:11;2.95;;;1.42;;
9188;SDS011;34313;50.780;6.084;2023-05-07T08:56:37;5.00;;;1.45;;
9188;SDS011;34313;50.780;6.084;2023-05-07T08:59:02;1.20;;;1.10;;
9188;SDS011;34313;50.780;6.084;2023-05-07T09:01:28;1.83;;;1.30;;
9188;SDS011;34313;50.780;6.084;2023-05-07T09:03:54;3.08;;;1.50;;
9188;SDS011;34313;50.780;6.084;2023-05-07T09:06:19;2.85;;;1.63;;
9188;SDS011;34313;50.780;6.084;2023-05-07T09:08:51;4.63;;;1.75;;
9188;SDS011;34313;50.780;6.084;2023-05-07T09:11:21;2.97;;;1.50;;
9188;SDS011;34313;50.780;6.084;2023-05-07T09:13:53;3.85;;;3.00;;
9188;SDS011;34313;50.780;6.084;2023-05-07T09:16:21;4.30;;;1.90;;
9188;SDS011;34313;50.780;6.084;2023-05-07T09:18:48;6.07;;;1.80;;
9188;SDS011;34313;50.780;6.084;2023-05-07T09:21:18;2.08;;;1.45;;
9188;SDS011;34313;50.780;6.084;2023-05-07T09:23:44;2.13;;;1.70;;
9188;SDS011;34313;50.780;6.084;2023-05-07T09:26:10;3.47;;;1.90;;
9188;SDS011;34313;50.780;6.084;2023-05-07T09:28:43;2.05;;;1.63;;
9188;SDS011;34313;50.780;6.084;2023-05-07T09:31:09;3.55;;;1.90;;
9188;SDS011;34313;50.780;6.084;2023-05-07T09:33:35;4.53;;;1.70;;
9188;SDS011;34313;50.780;6.084;2023-05-07T09:36:08;3.47;;;1.67;;
9188;SDS011;34313;50.780;6.084;2023-05-07T09:38:35;2.47;;;1.65;;
9188;SDS011;34313;50.780;6.084;2023-05-07T09:41:11;1.70;;;1.60;;
9188;SDS011;34313;50.780;6.084;2023-05-07T09:43:38;1.77;;;1.67;;
9188;SDS011;34313;50.780;6.084;2023-05-07T09:46:14;3.43;;;1.30;;
9188;SDS011;34313;50.780;6.084;2023-05-07T09:48:42;1.70;;;1.57;;
9188;SDS011;34313;50.780;6.084;2023-05-07T09:51:24;1.80;;;1.43;;
9188;SDS011;34313;50.780;6.084;2023-05-07T09:53:53;2.40;;;1.30;;
9188;SDS011;34313;50.780;6.084;2023-05-07T09:56:19;2.27;;;1.30;;
9188;SDS011;34313;50.780;6.084;2023-05-07T09:58:45;3.20;;;1.40;;
9188;SDS011;34313;50.780;6.084;2023-05-07T10:01:12;4.70;;;1.70;;
9188;SDS011;34313;50.780;6.084;2023-05-07T10:03:39;4.67;;;1.50;;
9188;SDS011;34313;50.780;6.084;2023-05-07T10:06:07;3.10;;;1.90;;
9188;SDS011;34313;50.780;6.084;2023-05-07T10:08:34;4.10;;;1.70;;
9188;SDS011;34313;50.780;6.084;2023-05-07T10:11:01;3.17;;;1.70;;
9188;SDS011;34313;50.780;6.084;2023-05-07T10:13:26;3.50;;;2.20;;
9188;SDS011;34313;50.780;6.084;2023-05-07T10:15:52;3.10;;;1.87;;
9188;SDS011;34313;50.780;6.084;2023-05-07T10:18:18;4.50;;;1.70;;
9188;SDS011;34313;50.780;6.084;2023-05-07T10:20:48;2.60;;;1.77;;
9188;SDS011;34313;50.780;6.084;2023-05-07T10:23:18;2.83;;;1.40;;
9188;SDS011;34313;50.780;6.084;2023-05-07T10:25:46;4.00;;;1.83;;
9188;SDS011;34313;50.780;6.084;2023-05-07T10:28:12;3.80;;;1.47;;
9188;SDS011;34313;50.780;6.084;2023-05-07T10:30:43;1.53;;;1.40;;
9188;SDS011;34313;50.780;6.084;2023-05-07T10:33:13;7.77;;;1.60;;
9188;SDS011;34313;50.780;6.084;2023-05-07T10:35:41;4.90;;;1.57;;
9188;SDS011;34313;50.780;6.084;2023-05-07T10:38:08;5.13;;;1.87;;
9188;SDS011;34313;50.780;6.084;2023-05-07T10:40:34;2.20;;;1.53;;
9188;SDS011;34313;50.780;6.084;2023-05-07T10:43:01;5.57;;;1.60;;
9188;SDS011;34313;50.780;6.084;2023-05-07T10:45:30;5.57;;;1.97;;
9188;SDS011;34313;50.780;6.084;2023-05-07T10:48:08;2.00;;;1.53;;
9188;SDS011;34313;50.780;6.084;2023-05-07T10:50:34;3.20;;;1.40;;
9188;SDS011;34313;50.780;6.084;2023-05-07T10:55:47;2.87;;;1.30;;
9188;SDS011;34313;50.780;6.084;2023-05-07T11:00:46;4.13;;;1.40;;
9188;SDS011;34313;50.780;6.084;2023-05-07T11:03:12;2.60;;;1.47;;
9188;SDS011;34313;50.780;6.084;2023-05-07T11:05:37;2.07;;;1.50;;
9188;SDS011;34313;50.780;6.084;2023-05-07T11:08:03;2.00;;;1.60;;
9188;SDS011;34313;50.780;6.084;2023-05-07T11:13:15;4.30;;;1.70;;
9188;SDS011;34313;50.780;6.084;2023-05-07T11:15:45;3.80;;;1.70;;
9188;SDS011;34313;50.780;6.084;2023-05-07T11:18:15;3.10;;;1.90;;
9188;SDS011;34313;50.780;6.084;2023-05-07T11:26:07;2.93;;;2.07;;
9188;SDS011;34313;50.780;6.084;2023-05-07T11:28:40;3.60;;;1.80;;
9188;SDS011;34313;50.780;6.084;2023-05-07T11:31:06;3.80;;;2.20;;
9188;SDS011;34313;50.780;6.084;2023-05-07T11:33:33;2.80;;;1.80;;
9188;SDS011;34313;50.780;6.084;2023-05-07T11:35:59;2.20;;;1.67;;
9188;SDS011;34313;50.780;6.084;2023-05-07T11:38:28;4.97;;;2.33;;
9188;SDS011;34313;50.780;6.084;2023-05-07T11:40:57;5.63;;;2.80;;
9188;SDS011;34313;50.780;6.084;2023-05-07T11:43:25;3.80;;;2.60;;
9188;SDS011;34313;50.780;6.084;2023-05-07T11:45:51;6.00;;;2.50;;
9188;SDS011;34313;50.780;6.084;2023-05-07T11:48:17;2.07;;;1.60;;
9188;SDS011;34313;50.780;6.084;2023-05-07T11:53:19;2.80;;;2.00;;
9188;SDS011;34313;50.780;6.084;2023-05-07T11:55:46;3.20;;;2.20;;
9188;SDS011;34313;50.780;6.084;2023-05-07T11:58:12;2.67;;;1.97;;
9188;SDS011;34313;50.780;6.084;2023-05-07T12:00:48;3.90;;;2.40;;
9188;SDS011;34313;50.780;6.084;2023-05-07T12:03:18;5.30;;;3.10;;
9188;SDS011;34313;50.780;6.084;2023-05-07T12:05:44;4.90;;;2.70;;
9188;SDS011;34313;50.780;6.084;2023-05-07T12:08:14;6.83;;;3.60;;
9188;SDS011;34313;50.780;6.084;2023-05-07T12:10:41;6.33;;;4.00;;
9188;SDS011;34313;50.780;6.084;2023-05-07T12:13:28;4.80;;;4.27;;
9188;SDS011;34313;50.780;6.084;2023-05-07T12:15:53;8.40;;;6.10;;
9188;SDS011;34313;50.780;6.084;2023-05-07T12:18:19;12.77;;;9.70;;
9188;SDS011;34313;50.780;6.084;2023-05-07T12:20:45;7.30;;;5.67;;
9188;SDS011;34313;50.780;6.084;2023-05-07T12:23:12;11.90;;;5.80;;
9188;SDS011;34313;50.780;6.084;2023-05-07T12:25:38;13.00;;;6.83;;
9188;SDS011;34313;50.780;6.084;2023-05-07T12:28:05;15.10;;;7.63;;
9188;SDS011;34313;50.780;6.084;2023-05-07T12:30:31;8.53;;;7.30;;
9188;SDS011;34313;50.780;6.084;2023-05-07T12:33:01;14.23;;;7.20;;
9188;SDS011;34313;50.780;6.084;2023-05-07T12:35:30;10.37;;;6.93;;
9188;SDS011;34313;50.780;6.084;2023-05-07T12:37:58;11.10;;;6.30;;
9188;SDS011;34313;50.780;6.084;2023-05-07T12:40:34;15.50;;;6.47;;
9188;SDS011;34313;50.780;6.084;2023-05-07T12:43:07;11.73;;;7.20;;
9188;SDS011;34313;50.780;6.084;2023-05-07T12:45:41;11.43;;;8.00;;
9188;SDS011;34313;50.780;6.084;2023-05-07T12:48:07;9.43;;;6.80;;
9188;SDS011;34313;50.780;6.084;2023-05-07T12:50:35;16.03;;;8.27;;
9188;SDS011;34313;50.780;6.084;2023-05-07T12:53:00;9.23;;;5.77;;
9188;SDS011;34313;50.780;6.084;2023-05-07T12:55:30;8.50;;;4.90;;
9188;SDS011;34313;50.780;6.084;2023-05-07T12:57:57;13.17;;;6.00;;
9188;SDS011;34313;50.780;6.084;2023-05-07T13:01:00;8.23;;;5.75;;
9188;SDS011;34313;50.780;6.084;2023-05-07T13:03:25;8.47;;;5.80;;
9188;SDS011;34313;50.780;6.084;2023-05-07T13:05:52;8.73;;;5.70;;
9188;SDS011;34313;50.780;6.084;2023-05-07T13:08:25;7.70;;;4.90;;
9188;SDS011;34313;50.780;6.084;2023-05-07T13:10:52;6.50;;;4.60;;
9188;SDS011;34313;50.780;6.084;2023-05-07T13:13:18;6.77;;;5.00;;
9188;SDS011;34313;50.780;6.084;2023-05-07T13:15:45;9.07;;;5.90;;
9188;SDS011;34313;50.780;6.084;2023-05-07T13:18:11;7.83;;;4.90;;
9188;SDS011;34313;50.780;6.084;2023-05-07T13:20:36;11.83;;;5.13;;
9188;SDS011;34313;50.780;6.084;2023-05-07T13:23:01;7.87;;;4.33;;
9188;SDS011;34313;50.780;6.084;2023-05-07T13:25:29;9.20;;;5.73;;
9188;SDS011;34313;50.780;6.084;2023-05-07T13:27:54;8.63;;;4.63;;
9188;SDS011;34313;50.780;6.084;2023-05-07T13:30:20;4.43;;;3.53;;
9188;SDS011;34313;50.780;6.084;2023-05-07T13:32:45;7.30;;;4.50;;
9188;SDS011;34313;50.780;6.084;2023-05-07T13:35:12;6.20;;;4.30;;
9188;SDS011;34313;50.780;6.084;2023-05-07T13:37:38;9.23;;;4.77;;
9188;SDS011;34313;50.780;6.084;2023-05-07T13:40:03;8.33;;;5.07;;
9188;SDS011;34313;50.780;6.084;2023-05-07T13:42:29;8.63;;;4.83;;
9188;SDS011;34313;50.780;6.084;2023-05-07T13:44:56;7.50;;;4.70;;
9188;SDS011;34313;50.780;6.084;2023-05-07T13:47:21;9.53;;;5.87;;
9188;SDS011;34313;50.780;6.084;2023-05-07T13:49:50;6.80;;;4.67;;
9188;SDS011;34313;50.780;6.084;2023-05-07T13:52:16;7.57;;;5.27;;
9188;SDS011;34313;50.780;6.084;2023-05-07T13:54:41;7.47;;;5.00;;
9188;SDS011;34313;50.780;6.084;2023-05-07T13:57:07;6.10;;;4.57;;
9188;SDS011;34313;50.780;6.084;2023-05-07T13:59:32;6.40;;;5.70;;
9188;SDS011;34313;50.780;6.084;2023-05-07T14:01:58;8.20;;;5.37;;
9188;SDS011;34313;50.780;6.084;2023-05-07T14:04:23;8.77;;;5.67;;
9188;SDS011;34313;50.780;6.084;2023-05-07T14:06:48;7.30;;;5.13;;
9188;SDS011;34313;50.780;6.084;2023-05-07T14:09:14;5.97;;;4.57;;
9188;SDS011;34313;50.780;6.084;2023-05-07T14:11:39;9.10;;;4.80;;
9188;SDS011;34313;50.780;6.084;2023-05-07T14:14:05;4.97;;;4.47;;
9188;SDS011;34313;50.780;6.084;2023-05-07T14:16:30;5.40;;;4.30;;
9188;SDS011;34313;50.780;6.084;2023-05-07T14:18:55;9.40;;;4.37;;
9188;SDS011;34313;50.780;6.084;2023-05-07T14:21:21;4.30;;;3.57;;
9188;SDS011;34313;50.780;6.084;2023-05-07T14:23:46;4.60;;;3.30;;
9188;SDS011;34313;50.780;6.084;2023-05-07T14:26:12;5.03;;;3.30;;
9188;SDS011;34313;50.780;6.084;2023-05-07T14:28:37;3.40;;;2.87;;
9188;SDS011;34313;50.780;6.084;2023-05-07T14:31:04;4.90;;;2.50;;
9188;SDS011;34313;50.780;6.084;2023-05-07T14:33:31;4.50;;;2.57;;
9188;SDS011;34313;50.780;6.084;2023-05-07T14:35:56;5.53;;;2.70;;
9188;SDS011;34313;50.780;6.084;2023-05-07T14:38:21;8.47;;;3.00;;
9188;SDS011;34313;50.780;6.084;2023-05-07T14:40:47;4.90;;;2.90;;
9188;SDS011;34313;50.780;6.084;2023-05-07T14:43:12;3.53;;;2.53;;
9188;SDS011;34313;50.780;6.084;2023-05-07T14:45:37;3.97;;;2.50;;
9188;SDS011;34313;50.780;6.084;2023-05-07T14:48:03;6.07;;;3.47;;
9188;SDS011;34313;50.780;6.084;2023-05-07T14:50:29;3.60;;;3.00;;
9188;SDS011;34313;50.780;6.084;2023-05-07T14:52:54;3.07;;;2.47;;
9188;SDS011;34313;50.780;6.084;2023-05-07T14:55:19;3.60;;;2.60;;
9188;SDS011;34313;50.780;6.084;2023-05-07T14:57:45;4.93;;;3.23;;
9188;SDS011;34313;50.780;6.084;2023-05-07T15:00:10;4.40;;;2.80;;
9188;SDS011;34313;50.780;6.084;2023-05-07T15:02:36;4.20;;;3.13;;
9188;SDS011;34313;50.780;6.084;2023-05-07T15:05:01;5.03;;;2.97;;
9188;SDS011;34313;50.780;6.084;2023-05-07T15:07:27;5.23;;;3.30;;
9188;SDS011;34313;50.780;6.084;2023-05-07T15:09:52;4.10;;;3.10;;
9188;SDS011;34313;50.780;6.084;2023-05-07T15:12:17;4.37;;;3.00;;